Time;durP1;ratioP1;P1;durP2;ratioP2;P2;SDS_P1;SDS_P2;PMS_P1;PMS_P2;Temp;Humidity;BMP_temperature;BMP_pressure;BME280_temperature;BME280_humidity;BME280_pressure;Samples;Min_cycle;Max_cycle;Signal;HPM_P1;HPM_P2
2023/07/24 00:01:56;;;;;;;8.65;7.72;;;24.00;99.90;;;;;;5081338;28;20263;-70
2023/07/24 00:04:23;;;;;;;11.00;6.50;;;24.00;99.90;;;;;;5072871;28;20647;-70
2023/07/24 00:06:50;;;;;;;9.40;7.43;;;23.90;99.90;;;;;;5072820;28;20237;-70
2023/07/24 00:09:17;;;;;;;9.73;6.63;;;23.90;99.90;;;;;;5073244;28;20240;-80
2023/07/24 00:11:44;;;;;;;9.75;7.88;;;23.90;99.90;;;;;;5073646;28;20237;-80
2023/07/24 00:14:11;;;;;;;10.27;6.90;;;23.90;99.90;;;;;;5073118;28;20238;-70
2023/07/24 00:16:37;;;;;;;8.30;7.50;;;23.90;99.90;;;;;;5073290;28;20241;-80
2023/07/24 00:19:06;;;;;;;9.18;6.80;;;23.90;99.90;;;;;;5072233;28;20690;-80
2023/07/24 00:21:33;;;;;;;8.57;6.97;;;23.90;99.90;;;;;;5073060;28;20202;-80
2023/07/24 00:23:59;;;;;;;7.75;6.97;;;23.90;99.90;;;;;;5072306;28;20210;-70
2023/07/24 00:26:26;;;;;;;11.52;7.45;;;23.90;99.90;;;;;;5073321;28;20240;-71
2023/07/24 00:28:53;;;;;;;9.23;7.60;;;23.80;99.90;;;;;;5072481;28;20339;-71
2023/07/24 00:31:20;;;;;;;9.05;5.90;;;23.80;99.90;;;;;;5072851;28;20238;-71
2023/07/24 00:33:47;;;;;;;8.40;7.00;;;23.70;99.90;;;;;;5073168;28;20238;-79
2023/07/24 00:36:15;;;;;;;13.85;7.20;;;23.80;99.90;;;;;;5072483;28;20727;-80
2023/07/24 00:38:42;;;;;;;7.40;5.47;;;23.70;99.90;;;;;;5072704;28;20238;-78
2023/07/24 00:41:09;;;;;;;7.28;6.40;;;23.70;99.90;;;;;;5072044;28;20234;-71
2023/07/24 00:43:36;;;;;;;6.68;5.80;;;23.80;99.90;;;;;;5072848;28;20233;-71
2023/07/24 00:46:03;;;;;;;9.52;7.10;;;23.80;99.90;;;;;;5072270;28;20245;-71
2023/07/24 00:48:30;;;;;;;10.32;6.47;;;23.80;99.90;;;;;;5072320;28;20679;-71
2023/07/24 00:50:58;;;;;;;7.75;6.90;;;23.80;99.90;;;;;;5071804;28;20587;-73
2023/07/24 00:53:26;;;;;;;7.72;6.50;;;23.90;99.90;;;;;;5072390;28;20210;-72
2023/07/24 00:55:54;;;;;;;9.43;7.68;;;23.90;99.90;;;;;;5072297;28;20245;-76
2023/07/24 00:58:21;;;;;;;9.98;7.55;;;24.00;99.90;;;;;;5072252;28;20315;-77
2023/07/24 01:00:48;;;;;;;7.75;6.45;;;24.00;99.90;;;;;;5072450;28;20249;-71
2023/07/24 01:03:15;;;;;;;8.48;6.80;;;24.00;99.90;;;;;;5072374;28;20241;-71
2023/07/24 01:05:42;;;;;;;7.55;6.28;;;24.10;99.90;;;;;;5072251;28;20232;-80
2023/07/24 01:08:09;;;;;;;10.32;7.03;;;24.10;99.90;;;;;;5071593;28;20633;-72
2023/07/24 01:10:38;;;;;;;10.82;5.95;;;24.10;99.90;;;;;;5072275;28;20225;-71
2023/07/24 01:13:10;;;;;;;8.25;6.40;;;24.10;99.90;;;;;;5071730;28;20238;-72
2023/07/24 01:15:39;;;;;;;12.05;6.68;;;23.90;99.90;;;;;;5058667;28;20233;-79
2023/07/24 01:18:09;;;;;;;8.10;5.97;;;24.00;99.90;;;;;;5071225;28;20773;-77
2023/07/24 01:20:38;;;;;;;7.50;5.80;;;24.00;99.90;;;;;;5071998;28;20206;-71
2023/07/24 01:23:32;;;;;;;5.30;4.80;;;24.00;99.90;;;;;;5071675;28;20229;-73
2023/07/24 01:26:02;;;;;;;5.22;4.82;;;23.90;99.90;;;;;;5059352;28;20654;-79
2023/07/24 01:28:29;;;;;;;5.13;4.70;;;23.90;99.90;;;;;;5071452;28;20242;-73
2023/07/24 01:30:57;;;;;;;5.45;4.95;;;23.80;99.90;;;;;;5071100;28;20242;-73
2023/07/24 01:33:24;;;;;;;7.65;4.75;;;23.80;99.90;;;;;;5071920;28;20237;-81
2023/07/24 01:35:54;;;;;;;6.30;4.80;;;23.70;99.90;;;;;;5071056;28;20689;-73
2023/07/24 01:38:22;;;;;;;5.75;4.93;;;23.60;99.90;;;;;;5071518;28;20276;-74
2023/07/24 01:40:50;;;;;;;5.60;4.93;;;23.60;99.90;;;;;;5071382;28;20253;-74
2023/07/24 01:43:18;;;;;;;5.50;5.00;;;23.60;99.90;;;;;;5071860;28;20249;-73
2023/07/24 01:45:45;;;;;;;6.10;5.03;;;23.50;99.90;;;;;;5071292;28;20248;-76
2023/07/24 01:48:12;;;;;;;7.13;4.72;;;23.50;99.90;;;;;;5070940;28;20697;-73
2023/07/24 01:50:39;;;;;;;6.50;5.90;;;23.30;99.90;;;;;;5071516;28;20261;-72
2023/07/24 01:53:06;;;;;;;7.22;6.32;;;23.10;99.90;;;;;;5070969;28;20246;-76
2023/07/24 01:55:32;;;;;;;7.15;6.43;;;23.10;99.90;;;;;;5071127;28;20244;-71
2023/07/24 01:57:59;;;;;;;7.65;6.88;;;22.90;99.90;;;;;;5070523;28;20265;-77
2023/07/24 02:00:28;;;;;;;6.90;6.30;;;22.60;99.90;;;;;;5071153;28;20313;-76
2023/07/24 02:02:55;;;;;;;8.02;7.32;;;22.50;99.90;;;;;;5070479;28;20234;-69
2023/07/24 02:05:23;;;;;;;8.90;6.57;;;22.60;99.90;;;;;;5070958;28;20689;-71
2023/07/24 02:07:50;;;;;;;7.80;6.22;;;22.60;99.90;;;;;;5070606;28;20252;-71
2023/07/24 02:10:17;;;;;;;8.55;7.50;;;22.60;99.90;;;;;;5071072;28;20686;-76
2023/07/24 02:12:44;;;;;;;7.80;7.10;;;22.60;99.90;;;;;;5071273;28;20241;-77
2023/07/24 02:15:11;;;;;;;7.20;6.50;;;22.50;99.90;;;;;;5070048;28;20244;-75
2023/07/24 02:17:39;;;;;;;7.88;7.18;;;22.40;99.90;;;;;;5070685;28;20229;-77
2023/07/24 02:20:08;;;;;;;6.85;6.25;;;22.30;99.90;;;;;;5070423;28;20720;-74
2023/07/24 02:22:35;;;;;;;8.77;7.70;;;22.30;99.90;;;;;;5070747;28;20248;-73
2023/07/24 02:25:02;;;;;;;8.23;7.38;;;22.30;99.90;;;;;;5069924;28;20206;-74
2023/07/24 02:27:34;;;;;;;6.93;6.05;;;22.30;99.90;;;;;;5057238;28;20238;-74
2023/07/24 02:30:01;;;;;;;8.55;7.75;;;22.20;99.90;;;;;;5070168;28;20229;-75
2023/07/24 02:32:28;;;;;;;8.02;7.30;;;22.20;99.90;;;;;;5070503;28;20206;-77
2023/07/24 02:34:56;;;;;;;7.35;6.65;;;22.20;99.90;;;;;;5070267;28;20210;-75
2023/07/24 02:37:23;;;;;;;7.80;7.10;;;22.20;99.90;;;;;;5070292;28;20237;-72
2023/07/24 02:39:50;;;;;;;8.10;6.43;;;22.30;99.90;;;;;;5070557;28;20273;-72
2023/07/24 02:42:17;;;;;;;9.65;6.47;;;22.30;99.90;;;;;;5070882;28;20237;-77
2023/07/24 02:44:44;;;;;;;7.70;7.00;;;22.20;99.90;;;;;;5070848;28;20238;-73
2023/07/24 02:47:11;;;;;;;8.90;7.00;;;22.10;99.90;;;;;;5070188;28;20252;-76
2023/07/24 02:49:38;;;;;;;6.20;5.70;;;22.20;99.90;;;;;;5070461;28;21197;-78
2023/07/24 02:52:07;;;;;;;7.70;7.00;;;22.20;99.90;;;;;;5070289;28;20202;-73
2023/07/24 02:54:33;;;;;;;8.05;6.68;;;22.20;99.90;;;;;;5070046;28;20237;-73
2023/07/24 02:57:00;;;;;;;7.75;6.90;;;22.10;99.90;;;;;;5070279;28;20314;-76
2023/07/24 02:59:27;;;;;;;6.80;6.15;;;22.10;99.90;;;;;;5069909;28;20790;-73
2023/07/24 03:01:54;;;;;;;7.13;6.28;;;22.10;99.90;;;;;;5070061;28;20245;-72
2023/07/24 03:04:21;;;;;;;6.53;5.93;;;22.10;99.90;;;;;;5070041;28;20241;-76
2023/07/24 03:06:48;;;;;;;7.88;7.18;;;22.10;99.90;;;;;;5070568;28;20241;-74
2023/07/24 03:09:16;;;;;;;7.07;6.15;;;22.20;99.90;;;;;;5070728;28;20241;-72
2023/07/24 03:11:43;;;;;;;7.00;6.43;;;22.20;99.90;;;;;;5070466;28;20287;-72
2023/07/24 03:14:10;;;;;;;7.72;7.03;;;22.10;99.90;;;;;;5069638;28;20252;-73
2023/07/24 03:16:37;;;;;;;6.97;6.28;;;22.10;99.90;;;;;;5070008;28;20206;-72
2023/07/24 03:19:04;;;;;;;6.68;6.00;;;22.00;99.90;;;;;;5069905;28;20275;-75
2023/07/24 03:21:31;;;;;;;6.72;6.13;;;21.90;99.90;;;;;;5070137;28;20250;-75
2023/07/24 03:23:58;;;;;;;6.35;5.80;;;21.90;99.90;;;;;;5069749;28;20234;-75
2023/07/24 03:26:26;;;;;;;7.30;5.57;;;21.80;99.90;;;;;;5070148;28;20245;-71
2023/07/24 03:28:53;;;;;;;6.07;5.57;;;21.80;99.90;;;;;;5069546;28;20642;-72
2023/07/24 03:31:20;;;;;;;6.15;5.65;;;21.80;99.90;;;;;;5069903;28;20241;-70
2023/07/24 03:33:47;;;;;;;6.55;5.95;;;21.80;99.90;;;;;;5070371;28;20244;-74
2023/07/24 03:36:13;;;;;;;5.82;5.32;;;21.80;99.90;;;;;;5071436;28;20250;-72
2023/07/24 03:38:40;;;;;;;5.97;5.40;;;21.80;99.90;;;;;;5073703;28;20270;-72
2023/07/24 03:41:07;;;;;;;6.15;5.38;;;21.80;99.90;;;;;;5073414;28;20202;-73
2023/07/24 03:43:35;;;;;;;6.00;5.50;;;21.70;99.90;;;;;;5073605;28;20267;-71
2023/07/24 03:46:02;;;;;;;7.07;6.40;;;21.70;99.90;;;;;;5073267;28;20230;-72
2023/07/24 03:48:29;;;;;;;5.20;4.70;;;21.70;99.90;;;;;;5073913;28;20238;-73
2023/07/24 03:51:00;;;;;;;6.70;5.95;;;21.70;99.90;;;;;;5073015;28;20645;-71
2023/07/24 03:53:27;;;;;;;5.38;4.97;;;21.50;99.90;;;;;;5073481;28;20221;-71
2023/07/24 03:55:55;;;;;;;5.95;5.35;;;21.50;99.90;;;;;;5073012;28;20237;-76
2023/07/24 03:58:22;;;;;;;5.00;4.50;;;21.50;99.90;;;;;;5073323;28;20264;-77
2023/07/24 04:00:50;;;;;;;5.75;5.25;;;21.50;99.90;;;;;;5073602;28;20202;-76
2023/07/24 04:03:17;;;;;;;5.47;4.95;;;21.50;99.90;;;;;;5074045;28;20237;-77
2023/07/24 04:05:44;;;;;;;5.25;4.78;;;21.50;99.90;;;;;;5073890;28;20206;-75
2023/07/24 04:08:12;;;;;;;5.85;5.28;;;21.50;99.90;;;;;;5072819;28;20272;-75
2023/07/24 04:10:38;;;;;;;5.20;4.70;;;21.40;99.90;;;;;;5073067;28;20692;-71
2023/07/24 04:13:05;;;;;;;5.38;4.88;;;21.40;99.90;;;;;;5072821;28;20669;-75
2023/07/24 04:15:32;;;;;;;6.00;5.40;;;21.40;99.90;;;;;;5073429;28;20206;-77
2023/07/24 04:18:01;;;;;;;6.03;4.70;;;21.50;99.90;;;;;;5072847;28;20206;-77
2023/07/24 04:20:28;;;;;;;7.03;4.82;;;21.40;99.90;;;;;;5073080;28;20241;-71
2023/07/24 04:22:54;;;;;;;6.07;5.43;;;21.50;99.90;;;;;;5072736;28;20241;-76
2023/07/24 04:25:21;;;;;;;5.75;5.25;;;21.50;99.90;;;;;;5072890;28;20249;-75
2023/07/24 04:27:48;;;;;;;5.03;4.63;;;21.50;99.90;;;;;;5073020;28;20703;-72
2023/07/24 04:30:16;;;;;;;5.97;5.43;;;21.50;99.90;;;;;;5073284;28;20210;-72
2023/07/24 04:32:43;;;;;;;8.32;6.15;;;21.50;99.90;;;;;;5073502;28;20213;-77
2023/07/24 04:35:11;;;;;;;5.93;5.28;;;21.50;99.90;;;;;;5072602;28;20707;-77
2023/07/24 04:37:38;;;;;;;4.63;4.22;;;21.50;99.90;;;;;;5072762;28;20206;-77
2023/07/24 04:40:06;;;;;;;5.93;5.40;;;21.50;99.90;;;;;;5072092;28;20265;-73
2023/07/24 04:42:33;;;;;;;7.30;4.72;;;21.40;99.90;;;;;;5072402;28;20203;-73
2023/07/24 04:45:00;;;;;;;6.32;4.68;;;21.50;99.90;;;;;;5072245;28;20637;-77
2023/07/24 04:47:27;;;;;;;5.07;4.68;;;21.40;99.90;;;;;;5072269;28;20245;-73
2023/07/24 04:49:55;;;;;;;6.35;5.20;;;21.40;99.90;;;;;;5072197;28;20301;-73
2023/07/24 04:52:23;;;;;;;5.25;4.45;;;21.40;99.90;;;;;;5072326;28;20644;-74
2023/07/24 04:54:50;;;;;;;6.72;5.30;;;21.50;99.90;;;;;;5071568;28;20299;-73
2023/07/24 04:57:17;;;;;;;4.20;3.85;;;21.50;99.90;;;;;;5072598;28;20689;-78
2023/07/24 04:59:44;;;;;;;5.15;4.40;;;21.60;99.90;;;;;;5072334;28;20276;-74
2023/07/24 05:02:10;;;;;;;5.45;4.93;;;21.60;99.90;;;;;;5072316;28;20245;-73
2023/07/24 05:04:37;;;;;;;8.63;5.68;;;21.60;99.90;;;;;;5072145;28;20245;-74
2023/07/24 05:07:04;;;;;;;5.20;4.70;;;21.60;99.90;;;;;;5071848;28;20716;-73
2023/07/24 05:09:33;;;;;;;4.90;4.40;;;21.50;99.90;;;;;;5071788;28;20206;-78
2023/07/24 05:12:00;;;;;;;4.57;4.18;;;21.50;99.90;;;;;;5071472;28;20241;-77
2023/07/24 05:14:26;;;;;;;5.03;4.50;;;21.50;99.90;;;;;;5072030;28;20739;-77
2023/07/24 05:16:53;;;;;;;5.38;4.43;;;21.50;99.90;;;;;;5071711;28;20234;-76
2023/07/24 05:19:20;;;;;;;5.45;4.93;;;21.60;99.90;;;;;;5072064;28;20269;-76
2023/07/24 05:21:47;;;;;;;4.95;4.55;;;21.60;99.90;;;;;;5072026;28;20234;-77
2023/07/24 05:24:14;;;;;;;6.35;5.68;;;21.60;99.90;;;;;;5071639;28;20245;-76
2023/07/24 05:26:42;;;;;;;5.18;4.78;;;21.60;99.90;;;;;;5071887;28;20245;-77
2023/07/24 05:29:09;;;;;;;4.68;4.28;;;21.60;99.90;;;;;;5071271;28;20246;-77
2023/07/24 05:31:36;;;;;;;5.20;4.50;;;21.70;99.90;;;;;;5071994;28;20241;-77
2023/07/24 05:34:05;;;;;;;5.30;4.80;;;21.60;99.90;;;;;;5071242;28;20210;-77
2023/07/24 05:36:32;;;;;;;7.00;5.18;;;21.70;99.90;;;;;;5071548;28;20214;-77
2023/07/24 05:38:58;;;;;;;7.03;5.38;;;21.70;99.90;;;;;;5070968;28;20261;-77
2023/07/24 05:41:25;;;;;;;5.13;4.63;;;21.60;99.90;;;;;;5071611;28;20685;-74
2023/07/24 05:43:55;;;;;;;6.03;4.63;;;21.60;99.90;;;;;;5071164;28;20237;-78
2023/07/24 05:46:22;;;;;;;5.85;4.97;;;21.60;99.90;;;;;;5071467;28;20198;-75
2023/07/24 05:48:49;;;;;;;5.32;4.75;;;21.60;99.90;;;;;;5071177;28;20206;-75
2023/07/24 05:51:16;;;;;;;4.93;4.53;;;21.60;99.90;;;;;;5071833;28;20202;-75
2023/07/24 05:53:43;;;;;;;5.07;4.57;;;21.70;99.90;;;;;;5071559;28;20220;-76
2023/07/24 05:56:10;;;;;;;5.18;4.72;;;21.80;99.90;;;;;;5070851;28;20238;-75
2023/07/24 05:58:37;;;;;;;5.53;5.03;;;21.80;99.90;;;;;;5070372;28;20682;-75
2023/07/24 06:01:08;;;;;;;5.97;4.50;;;21.90;99.90;;;;;;5070729;28;20246;-77
2023/07/24 06:03:34;;;;;;;4.75;4.35;;;22.00;99.90;;;;;;5071094;28;20214;-77
2023/07/24 06:06:01;;;;;;;5.13;4.63;;;22.00;99.90;;;;;;5070503;28;20233;-77
2023/07/24 06:08:28;;;;;;;5.68;5.10;;;22.10;99.90;;;;;;5071034;28;20237;-77
2023/07/24 06:10:55;;;;;;;4.50;4.10;;;22.30;99.90;;;;;;5070406;28;20245;-73
2023/07/24 06:13:22;;;;;;;6.07;5.57;;;22.40;99.90;;;;;;5070950;28;20229;-73
2023/07/24 06:15:49;;;;;;;5.32;4.82;;;22.60;99.90;;;;;;5070960;28;20238;-73
2023/07/24 06:18:18;;;;;;;5.32;4.40;;;22.70;99.90;;;;;;5070920;28;20259;-73
2023/07/24 06:20:45;;;;;;;5.70;5.20;;;22.60;99.90;;;;;;5071258;28;20320;-74
2023/07/24 06:23:11;;;;;;;5.32;4.82;;;22.60;99.90;;;;;;5070359;28;20206;-76
2023/07/24 06:25:38;;;;;;;5.03;4.50;;;22.50;99.90;;;;;;5070719;28;20234;-70
2023/07/24 06:28:05;;;;;;;4.93;4.50;;;22.50;99.90;;;;;;5070469;28;20248;-70
2023/07/24 06:30:32;;;;;;;5.22;4.82;;;22.50;99.90;;;;;;5070359;28;20247;-70
2023/07/24 06:32:59;;;;;;;5.97;4.68;;;22.50;99.90;;;;;;5070439;28;20245;-76
2023/07/24 06:35:27;;;;;;;6.03;4.32;;;22.60;99.90;;;;;;5070409;28;20279;-76
2023/07/24 06:37:54;;;;;;;4.72;4.32;;;22.50;99.90;;;;;;5070330;28;20246;-71
2023/07/24 06:40:21;;;;;;;4.57;4.10;;;22.70;99.90;;;;;;5070458;28;20280;-69
2023/07/24 06:42:48;;;;;;;4.88;4.45;;;22.80;99.90;;;;;;5070783;28;20237;-75
2023/07/24 06:45:15;;;;;;;5.68;4.95;;;22.70;99.90;;;;;;5070600;28;20567;-73
2023/07/24 06:47:42;;;;;;;7.22;5.40;;;22.70;99.90;;;;;;5070501;28;20234;-72
2023/07/24 06:50:09;;;;;;;5.57;4.55;;;22.70;99.90;;;;;;5070027;28;20252;-77
2023/07/24 06:52:37;;;;;;;3.97;3.67;;;22.80;99.90;;;;;;5070152;28;20238;-77
2023/07/24 06:55:05;;;;;;;4.80;4.40;;;22.90;99.90;;;;;;5069922;28;20672;-73
2023/07/24 06:57:32;;;;;;;6.53;4.47;;;22.90;99.90;;;;;;5070055;28;20705;-72
2023/07/24 06:59:59;;;;;;;3.90;3.60;;;22.90;99.90;;;;;;5069700;28;20273;-75
2023/07/24 07:02:26;;;;;;;4.90;4.47;;;22.90;99.90;;;;;;5070404;28;20245;-76
2023/07/24 07:04:52;;;;;;;9.27;4.35;;;23.00;99.90;;;;;;5069501;28;20248;-76
2023/07/24 07:07:19;;;;;;;5.82;4.10;;;22.90;99.90;;;;;;5070190;28;20245;-71
2023/07/24 07:09:48;;;;;;;5.38;4.38;;;22.90;99.90;;;;;;5070761;28;20237;-72
2023/07/24 07:12:14;;;;;;;4.38;3.97;;;22.90;99.90;;;;;;5073889;28;20210;-71
2023/07/24 07:14:41;;;;;;;4.07;3.72;;;23.10;99.90;;;;;;5073924;28;20643;-74
2023/07/24 07:17:08;;;;;;;5.68;3.90;;;23.40;99.90;;;;;;5073605;28;20774;-73
2023/07/24 07:19:36;;;;;;;5.03;4.60;;;23.60;99.90;;;;;;5073804;28;20265;-73
2023/07/24 07:22:02;;;;;;;4.47;4.07;;;23.30;99.90;;;;;;5073341;28;20213;-73
2023/07/24 07:24:29;;;;;;;5.13;4.63;;;23.20;99.90;;;;;;5074004;28;20234;-74
2023/07/24 07:26:58;;;;;;;4.00;3.65;;;23.00;99.90;;;;;;5073211;28;20237;-73
2023/07/24 07:29:25;;;;;;;4.30;4.00;;;23.10;99.90;;;;;;5074238;28;20241;-73
2023/07/24 07:31:52;;;;;;;4.68;4.28;;;23.10;99.90;;;;;;5073436;28;20284;-72
2023/07/24 07:34:19;;;;;;;4.38;3.97;;;23.50;99.90;;;;;;5073760;28;20233;-72
2023/07/24 07:36:45;;;;;;;4.40;4.00;;;24.00;99.90;;;;;;5074184;28;20246;-75
2023/07/24 07:39:12;;;;;;;5.32;4.57;;;24.10;99.90;;;;;;5073329;28;20249;-70
2023/07/24 07:41:39;;;;;;;5.00;4.13;;;23.80;99.90;;;;;;5073762;28;20238;-75
2023/07/24 07:44:07;;;;;;;5.20;4.55;;;23.40;99.90;;;;;;5073386;28;20644;-74
2023/07/24 07:46:34;;;;;;;5.80;4.57;;;23.50;99.90;;;;;;5073702;28;20246;-74
2023/07/24 07:49:01;;;;;;;6.53;4.20;;;23.90;99.90;;;;;;5073087;28;20242;-75
2023/07/24 07:51:28;;;;;;;4.75;4.25;;;24.20;99.90;;;;;;5073667;28;20245;-75
2023/07/24 07:53:55;;;;;;;4.57;4.18;;;24.30;99.90;;;;;;5073150;28;20720;-72
2023/07/24 07:56:22;;;;;;;4.75;3.67;;;24.50;99.90;;;;;;5073811;28;20234;-71
2023/07/24 07:58:49;;;;;;;4.43;4.03;;;24.40;99.90;;;;;;5073541;28;20246;-74
2023/07/24 08:01:17;;;;;;;3.85;3.50;;;24.30;99.90;;;;;;5073594;28;20265;-74
2023/07/24 08:03:44;;;;;;;5.15;4.63;;;24.40;99.90;;;;;;5073564;28;20248;-71
2023/07/24 08:06:12;;;;;;;4.00;3.70;;;24.60;99.90;;;;;;5072780;28;20268;-73
2023/07/24 08:08:38;;;;;;;3.70;3.30;;;24.60;99.90;;;;;;5073041;28;20676;-73
2023/07/24 08:11:06;;;;;;;4.28;3.97;;;24.60;99.90;;;;;;5072424;28;20696;-75
2023/07/24 08:13:33;;;;;;;4.45;4.15;;;24.30;99.90;;;;;;5073131;28;20198;-76
2023/07/24 08:16:02;;;;;;;4.40;4.00;;;24.10;99.90;;;;;;5072778;28;20689;-74
2023/07/24 08:18:31;;;;;;;6.28;4.57;;;23.80;99.90;;;;;;5072721;28;20210;-73
2023/07/24 08:20:57;;;;;;;4.32;3.92;;;23.90;99.90;;;;;;5072284;28;20743;-75
2023/07/24 08:23:24;;;;;;;5.43;4.22;;;23.90;99.90;;;;;;5072534;28;20242;-73
2023/07/24 08:25:54;;;;;;;4.32;3.97;;;23.80;99.90;;;;;;5072890;28;20230;-73
2023/07/24 08:28:21;;;;;;;5.22;4.13;;;24.00;99.90;;;;;;5073003;28;20731;-75
2023/07/24 08:30:57;;;;;;;4.03;3.65;;;24.30;99.90;;;;;;5072932;28;20241;-73
2023/07/24 08:33:24;;;;;;;4.05;3.75;;;24.50;99.90;;;;;;5072573;28;20225;-75
2023/07/24 08:36:00;;;;;;;6.53;4.05;;;24.40;99.90;;;;;;5071840;28;20241;-74
2023/07/24 08:38:28;;;;;;;4.22;3.83;;;24.80;99.90;;;;;;5072736;28;20215;-74
2023/07/24 08:41:02;;;;;;;4.30;3.88;;;25.00;99.90;;;;;;5072001;28;20265;-75
2023/07/24 08:43:30;;;;;;;4.55;3.78;;;25.30;99.90;;;;;;5072352;28;20752;-74
2023/07/24 08:45:59;;;;;;;3.83;3.53;;;25.30;99.90;;;;;;5071905;28;20202;-74
2023/07/24 08:48:27;;;;;;;3.80;3.50;;;25.40;99.90;;;;;;5075755;28;20229;-75
2023/07/24 08:50:54;;;;;;;3.80;3.45;;;25.20;99.90;;;;;;5082957;28;20257;-74
2023/07/24 08:53:23;;;;;;;4.68;3.45;;;25.20;99.90;;;;;;5075794;28;20243;-76
2023/07/24 08:55:51;;;;;;;4.25;3.72;;;25.10;99.90;;;;;;5076088;28;20242;-75
2023/07/24 08:58:19;;;;;;;3.45;3.13;;;24.90;99.90;;;;;;5083897;28;20201;-75
2023/07/24 09:00:46;;;;;;;3.85;3.38;;;24.80;99.90;;;;;;5074689;28;20395;-75
2023/07/24 09:03:13;;;;;;;4.05;3.65;;;24.80;99.90;;;;;;5074319;28;20206;-75
2023/07/24 09:05:40;;;;;;;3.97;3.60;;;24.90;99.90;;;;;;5078532;28;20263;-75
2023/07/24 09:08:07;;;;;;;3.50;3.00;;;25.00;99.90;;;;;;5076169;28;20293;-75
2023/07/24 09:10:35;;;;;;;3.85;3.17;;;25.30;99.90;;;;;;5077315;28;20202;-75
2023/07/24 09:13:03;;;;;;;3.90;3.50;;;25.50;99.90;;;;;;5073324;28;20234;-77
2023/07/24 09:15:39;;;;;;;3.83;3.03;;;25.40;99.90;;;;;;5074627;28;20658;-74
2023/07/24 09:18:06;;;;;;;3.08;2.60;;;25.20;99.90;;;;;;5077944;28;20237;-75
2023/07/24 09:20:40;;;;;;;3.65;3.25;;;25.00;99.90;;;;;;5077774;28;20261;-77
2023/07/24 09:23:07;;;;;;;4.05;2.90;;;25.00;99.90;;;;;;5081931;28;20692;-76
2023/07/24 09:25:37;;;;;;;5.53;3.03;;;25.10;99.90;;;;;;5082437;28;20225;-77
2023/07/24 09:28:11;;;;;;;3.13;2.63;;;25.30;99.90;;;;;;5069508;28;20245;-75
2023/07/24 09:30:38;;;;;;;3.00;2.80;;;25.50;99.90;;;;;;5086501;28;20206;-76
2023/07/24 09:33:05;;;;;;;4.68;3.30;;;25.70;99.90;;;;;;5089633;28;20237;-76
2023/07/24 09:35:32;;;;;;;3.42;3.13;;;25.70;99.90;;;;;;5088710;28;20233;-76
2023/07/24 09:38:07;;;;;;;3.92;3.13;;;25.50;99.90;;;;;;5072269;28;20249;-73
2023/07/24 09:40:43;;;;;;;2.95;2.70;;;25.20;99.90;;;;;;5076181;28;20275;-74
2023/07/24 09:43:20;;;;;;;3.25;3.03;;;25.00;99.90;;;;;;5074858;28;20253;-75
2023/07/24 09:45:48;;;;;;;3.53;3.08;;;25.10;99.90;;;;;;5073662;28;20236;-75
2023/07/24 09:48:16;;;;;;;2.85;2.65;;;25.20;99.90;;;;;;5079644;28;20363;-76
2023/07/24 09:50:46;;;;;;;2.88;2.58;;;25.30;99.90;;;;;;5076136;28;20230;-77
2023/07/24 09:53:18;;;;;;;2.97;2.65;;;25.50;99.90;;;;;;5070846;28;20220;-75
2023/07/24 09:55:52;;;;;;;4.03;3.03;;;25.80;99.90;;;;;;5084281;28;20251;-75
2023/07/24 09:58:21;;;;;;;3.42;2.85;;;26.00;99.90;;;;;;5083118;28;20551;-75
2023/07/24 10:00:50;;;;;;;2.92;2.63;;;26.10;99.90;;;;;;5073954;28;20721;-74
2023/07/24 10:03:17;;;;;;;3.00;2.72;;;25.70;99.90;;;;;;5074278;28;20241;-74
2023/07/24 10:05:45;;;;;;;4.28;2.67;;;25.40;99.90;;;;;;5078471;28;20237;-76
2023/07/24 10:08:12;;;;;;;4.25;3.00;;;25.30;99.90;;;;;;5076278;28;20237;-76
2023/07/24 10:10:40;;;;;;;3.13;2.55;;;25.40;99.90;;;;;;5073842;28;20253;-75
2023/07/24 10:13:10;;;;;;;2.90;2.65;;;25.30;99.90;;;;;;5072291;28;20241;-74
2023/07/24 10:15:38;;;;;;;2.97;2.75;;;25.30;99.90;;;;;;5062363;28;20198;-76
2023/07/24 10:18:06;;;;;;;3.30;2.92;;;25.20;99.90;;;;;;5076646;28;20291;-76
2023/07/24 10:20:36;;;;;;;2.58;2.38;;;25.20;99.90;;;;;;5076584;28;20222;-75
2023/07/24 10:23:04;;;;;;;6.43;3.30;;;25.50;99.90;;;;;;5076123;28;20590;-75
2023/07/24 10:25:34;;;;;;;4.70;2.55;;;25.70;99.90;;;;;;5070599;28;20287;-73
2023/07/24 10:28:07;;;;;;;3.38;2.53;;;25.90;99.90;;;;;;5069854;28;20574;-73
2023/07/24 10:30:36;;;;;;;5.95;2.85;;;26.00;99.90;;;;;;5070725;28;20208;-72
2023/07/24 10:33:11;;;;;;;3.33;2.72;;;25.90;99.90;;;;;;5070406;28;20206;-75
2023/07/24 10:35:43;;;;;;;3.03;2.65;;;25.90;99.90;;;;;;5072430;28;20237;-74
2023/07/24 10:38:10;;;;;;;2.42;1.80;;;25.90;99.90;;;;;;5090154;28;20684;-73
2023/07/24 10:40:37;;;;;;;2.88;2.53;;;26.10;99.90;;;;;;5075179;28;20267;-74
2023/07/24 10:43:08;;;;;;;2.25;2.05;;;26.20;99.90;;;;;;5070021;28;20626;-72
2023/07/24 10:45:48;;;;;;;2.95;2.58;;;26.10;99.90;;;;;;5070077;28;20253;-72
2023/07/24 10:48:15;;;;;;;2.47;2.20;;;26.10;99.90;;;;;;5070779;28;20229;-72
2023/07/24 10:50:43;;;;;;;2.55;2.35;;;25.70;99.90;;;;;;5070208;28;20213;-73
2023/07/24 10:53:11;;;;;;;2.25;2.05;;;25.80;99.90;;;;;;5069995;28;20248;-72
2023/07/24 10:55:39;;;;;;;2.80;2.25;;;26.00;99.90;;;;;;5070371;28;20210;-73
2023/07/24 10:58:08;;;;;;;2.70;2.47;;;26.40;99.90;;;;;;5070079;28;20230;-74
2023/07/24 11:00:35;;;;;;;3.17;2.88;;;26.60;99.90;;;;;;5070374;28;20268;-74
2023/07/24 11:03:04;;;;;;;3.95;2.83;;;27.00;99.90;;;;;;5069912;28;20233;-73
2023/07/24 11:05:31;;;;;;;2.50;2.30;;;27.10;99.90;;;;;;5069970;28;20240;-72
2023/07/24 11:07:58;;;;;;;2.85;1.85;;;27.00;99.90;;;;;;5069949;28;20209;-72
2023/07/24 11:10:25;;;;;;;4.03;2.53;;;26.80;99.90;;;;;;5070199;28;20206;-73
2023/07/24 11:12:53;;;;;;;2.83;2.58;;;26.50;99.90;;;;;;5070143;28;20205;-72
2023/07/24 11:15:26;;;;;;;4.07;2.40;;;26.60;99.90;;;;;;5070151;28;20214;-72
2023/07/24 11:17:53;;;;;;;3.60;2.47;;;26.20;99.90;;;;;;5069827;28;20205;-70
2023/07/24 11:20:21;;;;;;;3.35;2.50;;;26.20;99.90;;;;;;5069935;28;20237;-72
2023/07/24 11:22:48;;;;;;;3.08;2.50;;;26.30;99.90;;;;;;5070744;28;20237;-72
2023/07/24 11:25:15;;;;;;;2.53;2.33;;;26.60;99.90;;;;;;5070115;28;20634;-72
2023/07/24 11:27:43;;;;;;;2.95;2.42;;;26.90;99.90;;;;;;5070267;28;20241;-74
2023/07/24 11:30:12;;;;;;;3.63;3.03;;;27.20;99.90;;;;;;5069577;28;20210;-73
2023/07/24 11:32:40;;;;;;;3.33;3.03;;;27.40;99.90;;;;;;5070010;28;20566;-72
2023/07/24 11:35:08;;;;;;;3.05;2.35;;;27.50;99.90;;;;;;5069881;28;20206;-72
2023/07/24 11:37:37;;;;;;;4.57;2.45;;;27.70;99.90;;;;;;5069758;28;20751;-73
2023/07/24 11:40:09;;;;;;;3.00;2.80;;;27.80;99.90;;;;;;5069775;28;20206;-72
2023/07/24 11:42:39;;;;;;;4.28;2.90;;;27.50;99.90;;;;;;5069938;28;20229;-74
2023/07/24 11:45:09;;;;;;;3.40;2.38;;;27.30;99.90;;;;;;5069624;28;20667;-73
2023/07/24 11:47:43;;;;;;;2.83;2.63;;;27.60;99.90;;;;;;5069915;28;20279;-74
2023/07/24 11:50:11;;;;;;;3.22;3.03;;;28.00;99.90;;;;;;5069661;28;20232;-73
2023/07/24 11:52:44;;;;;;;3.15;2.85;;;28.00;99.90;;;;;;5069648;28;20267;-74
2023/07/24 11:55:11;;;;;;;2.42;2.22;;;27.80;99.90;;;;;;5069580;28;20222;-72
2023/07/24 11:57:38;;;;;;;3.65;2.97;;;27.50;99.90;;;;;;5071850;28;20230;-74
2023/07/24 12:00:06;;;;;;;3.10;2.80;;;27.40;99.90;;;;;;5073195;28;20731;-72
2023/07/24 12:02:34;;;;;;;4.88;3.30;;;27.60;99.90;;;;;;5073289;28;20685;-72
2023/07/24 12:05:02;;;;;;;2.75;2.45;;;27.70;99.90;;;;;;5073358;28;20203;-74
2023/07/24 12:07:33;;;;;;;4.05;2.95;;;27.50;99.90;;;;;;5074884;28;20217;-76
2023/07/24 12:10:02;;;;;;;3.13;2.83;;;27.30;99.90;;;;;;5075168;28;20233;-72
2023/07/24 12:12:45;;;;;;;2.28;2.08;;;27.50;99.90;;;;;;5082699;28;20206;-73
2023/07/24 12:15:12;;;;;;;3.95;2.67;;;27.30;99.90;;;;;;5076520;28;20273;-76
2023/07/24 12:17:39;;;;;;;2.92;2.63;;;27.10;99.90;;;;;;5075962;28;20234;-74
2023/07/24 12:20:09;;;;;;;4.53;3.05;;;27.00;99.90;;;;;;5080029;28;20241;-73
2023/07/24 12:22:36;;;;;;;2.63;2.42;;;26.80;99.90;;;;;;5078087;28;20230;-73
2023/07/24 12:25:05;;;;;;;3.63;2.85;;;26.80;99.90;;;;;;5077519;28;20249;-73
2023/07/24 12:27:32;;;;;;;3.05;2.22;;;26.90;99.90;;;;;;5073240;28;20198;-75
2023/07/24 12:29:59;;;;;;;2.42;2.22;;;26.90;99.90;;;;;;5072332;28;20715;-76
2023/07/24 12:32:26;;;;;;;2.88;2.60;;;27.20;99.90;;;;;;5072831;28;20237;-75
2023/07/24 12:34:54;;;;;;;3.28;2.70;;;27.50;99.90;;;;;;5072411;28;20198;-74
2023/07/24 12:37:21;;;;;;;3.22;2.63;;;27.50;99.90;;;;;;5072280;28;20241;-74
2023/07/24 12:39:49;;;;;;;2.58;2.38;;;27.70;99.90;;;;;;5072887;28;20237;-73
2023/07/24 12:42:17;;;;;;;3.30;3.00;;;27.80;99.90;;;;;;5072771;28;20277;-75
2023/07/24 12:44:44;;;;;;;3.58;2.92;;;27.50;99.90;;;;;;5078896;28;20241;-74
2023/07/24 12:47:12;;;;;;;3.03;2.83;;;27.80;99.90;;;;;;5081688;28;20205;-73
2023/07/24 12:49:39;;;;;;;2.35;2.15;;;28.40;99.90;;;;;;5082989;28;20234;-73